Upper Holland, Pennsylvania
Current Conditions -  °F | °C
As of 2:54 AM on Monday 26 Jan 2015 (Local Time) from KPNE Reporting Station
Overcast Overcast  
Wind Chill: 21°   Ceiling: 2300
Heat Index: 30°   Visibility: 9mi
Dew Point: 22°   Wind: 10mph
Humidity: 72%   Direction: 70°ENE
Pressure: 29.97"   Gusts: NA
Location:  40.1496°N, 74.9856°W
Report Text: KPNE 260754Z AUTO 07009KT 9SM OVC023 M01/M06 A2997 RMK AO2 SLP150 I1000 T10111056 TSNO
Loading
Personal Weather Stations






























Interactive Weather Map New forecast layout! Learn more

10-Day Weather Forecast

Advertisements
Track Severe Weather on mobile